sensor_id;sensor_type;location;lat;lon;timestamp;P1;durP1;ratioP1;P2;durP2;ratioP2
13832;SDS011;6987;19.472;-99.276;2022-12-20T00:01:12;14.05;;;8.48;;
13832;SDS011;6987;19.472;-99.276;2022-12-20T00:03:41;10.10;;;8.23;;
13832;SDS011;6987;19.472;-99.276;2022-12-20T00:06:10;12.35;;;8.40;;
13832;SDS011;6987;19.472;-99.276;2022-12-20T00:08:39;10.57;;;8.00;;
13832;SDS011;6987;19.472;-99.276;2022-12-20T00:11:10;10.07;;;8.30;;
13832;SDS011;6987;19.472;-99.276;2022-12-20T00:13:39;13.93;;;8.60;;
13832;SDS011;6987;19.472;-99.276;2022-12-20T00:16:09;12.90;;;8.55;;
13832;SDS011;6987;19.472;-99.276;2022-12-20T00:18:38;27.67;;;10.98;;
13832;SDS011;6987;19.472;-99.276;2022-12-20T00:21:08;15.65;;;8.88;;
13832;SDS011;6987;19.472;-99.276;2022-12-20T00:23:37;18.70;;;10.32;;
13832;SDS011;6987;19.472;-99.276;2022-12-20T00:26:07;17.15;;;9.77;;
13832;SDS011;6987;19.472;-99.276;2022-12-20T00:28:38;12.73;;;8.45;;
13832;SDS011;6987;19.472;-99.276;2022-12-20T00:31:08;13.52;;;8.60;;
13832;SDS011;6987;19.472;-99.276;2022-12-20T00:33:38;15.10;;;9.18;;
13832;SDS011;6987;19.472;-99.276;2022-12-20T00:36:07;18.17;;;9.27;;
13832;SDS011;6987;19.472;-99.276;2022-12-20T00:38:36;15.35;;;8.73;;
13832;SDS011;6987;19.472;-99.276;2022-12-20T00:41:05;11.27;;;8.18;;
13832;SDS011;6987;19.472;-99.276;2022-12-20T00:43:34;12.93;;;8.75;;
13832;SDS011;6987;19.472;-99.276;2022-12-20T00:46:05;16.10;;;8.75;;
13832;SDS011;6987;19.472;-99.276;2022-12-20T00:48:34;15.85;;;9.93;;
13832;SDS011;6987;19.472;-99.276;2022-12-20T00:51:04;32.25;;;11.40;;
13832;SDS011;6987;19.472;-99.276;2022-12-20T00:53:33;31.40;;;12.52;;
13832;SDS011;6987;19.472;-99.276;2022-12-20T00:56:03;21.63;;;10.38;;
13832;SDS011;6987;19.472;-99.276;2022-12-20T00:58:32;23.80;;;10.73;;
13832;SDS011;6987;19.472;-99.276;2022-12-20T01:01:01;22.48;;;9.80;;
13832;SDS011;6987;19.472;-99.276;2022-12-20T01:03:31;18.77;;;10.15;;
13832;SDS011;6987;19.472;-99.276;2022-12-20T01:06:00;16.48;;;9.63;;
13832;SDS011;6987;19.472;-99.276;2022-12-20T01:08:30;18.70;;;10.93;;
13832;SDS011;6987;19.472;-99.276;2022-12-20T01:10:59;16.98;;;10.38;;
13832;SDS011;6987;19.472;-99.276;2022-12-20T01:13:28;21.80;;;11.85;;
13832;SDS011;6987;19.472;-99.276;2022-12-20T01:16:02;33.45;;;14.07;;
13832;SDS011;6987;19.472;-99.276;2022-12-20T01:18:33;21.15;;;13.52;;
13832;SDS011;6987;19.472;-99.276;2022-12-20T01:21:02;34.10;;;11.45;;
13832;SDS011;6987;19.472;-99.276;2022-12-20T01:23:31;20.83;;;11.10;;
13832;SDS011;6987;19.472;-99.276;2022-12-20T01:26:00;23.95;;;11.50;;
13832;SDS011;6987;19.472;-99.276;2022-12-20T01:28:29;20.08;;;11.88;;
13832;SDS011;6987;19.472;-99.276;2022-12-20T01:30:59;46.90;;;15.32;;
13832;SDS011;6987;19.472;-99.276;2022-12-20T01:33:27;40.55;;;14.50;;
13832;SDS011;6987;19.472;-99.276;2022-12-20T01:35:58;25.85;;;13.02;;
13832;SDS011;6987;19.472;-99.276;2022-12-20T01:38:27;32.38;;;13.60;;
13832;SDS011;6987;19.472;-99.276;2022-12-20T01:40:56;34.03;;;13.30;;
13832;SDS011;6987;19.472;-99.276;2022-12-20T01:43:25;30.75;;;14.07;;
13832;SDS011;6987;19.472;-99.276;2022-12-20T01:46:11;33.05;;;13.73;;
13832;SDS011;6987;19.472;-99.276;2022-12-20T01:48:41;23.45;;;12.75;;
13832;SDS011;6987;19.472;-99.276;2022-12-20T01:51:11;31.50;;;13.55;;
13832;SDS011;6987;19.472;-99.276;2022-12-20T01:53:40;21.30;;;13.38;;
13832;SDS011;6987;19.472;-99.276;2022-12-20T01:56:09;26.90;;;13.48;;
13832;SDS011;6987;19.472;-99.276;2022-12-20T01:58:38;30.63;;;13.00;;
13832;SDS011;6987;19.472;-99.276;2022-12-20T02:01:07;26.52;;;13.63;;
13832;SDS011;6987;19.472;-99.276;2022-12-20T02:03:36;33.30;;;12.85;;
13832;SDS011;6987;19.472;-99.276;2022-12-20T02:06:17;23.85;;;13.30;;
13832;SDS011;6987;19.472;-99.276;2022-12-20T02:08:47;18.20;;;12.77;;
13832;SDS011;6987;19.472;-99.276;2022-12-20T02:11:26;30.08;;;14.95;;
13832;SDS011;6987;19.472;-99.276;2022-12-20T02:13:59;27.00;;;13.50;;
13832;SDS011;6987;19.472;-99.276;2022-12-20T02:16:34;27.23;;;14.73;;
13832;SDS011;6987;19.472;-99.276;2022-12-20T02:19:06;24.25;;;14.05;;
13832;SDS011;6987;19.472;-99.276;2022-12-20T02:21:39;33.00;;;14.82;;
13832;SDS011;6987;19.472;-99.276;2022-12-20T02:24:14;27.80;;;13.77;;
13832;SDS011;6987;19.472;-99.276;2022-12-20T02:27:08;24.27;;;13.82;;
13832;SDS011;6987;19.472;-99.276;2022-12-20T02:30:00;21.27;;;12.90;;
13832;SDS011;6987;19.472;-99.276;2022-12-20T02:32:30;22.05;;;13.32;;
13832;SDS011;6987;19.472;-99.276;2022-12-20T02:35:02;17.60;;;12.30;;
13832;SDS011;6987;19.472;-99.276;2022-12-20T02:37:32;18.80;;;12.25;;
13832;SDS011;6987;19.472;-99.276;2022-12-20T02:40:02;26.85;;;13.43;;
13832;SDS011;6987;19.472;-99.276;2022-12-20T02:42:31;31.05;;;14.82;;
13832;SDS011;6987;19.472;-99.276;2022-12-20T02:45:04;21.67;;;13.00;;
13832;SDS011;6987;19.472;-99.276;2022-12-20T02:47:43;25.60;;;13.48;;
13832;SDS011;6987;19.472;-99.276;2022-12-20T02:50:13;23.00;;;13.68;;
13832;SDS011;6987;19.472;-99.276;2022-12-20T02:52:44;20.98;;;12.43;;
13832;SDS011;6987;19.472;-99.276;2022-12-20T02:55:13;21.95;;;13.25;;
13832;SDS011;6987;19.472;-99.276;2022-12-20T02:57:44;24.83;;;13.05;;
13832;SDS011;6987;19.472;-99.276;2022-12-20T03:00:16;29.00;;;13.68;;
13832;SDS011;6987;19.472;-99.276;2022-12-20T03:02:45;23.92;;;13.10;;
13832;SDS011;6987;19.472;-99.276;2022-12-20T03:05:31;20.75;;;13.07;;
13832;SDS011;6987;19.472;-99.276;2022-12-20T03:08:00;23.98;;;13.00;;
13832;SDS011;6987;19.472;-99.276;2022-12-20T03:10:29;21.70;;;13.48;;
13832;SDS011;6987;19.472;-99.276;2022-12-20T03:12:58;23.33;;;13.15;;
13832;SDS011;6987;19.472;-99.276;2022-12-20T03:15:29;20.60;;;13.85;;
13832;SDS011;6987;19.472;-99.276;2022-12-20T03:17:57;27.40;;;13.77;;
13832;SDS011;6987;19.472;-99.276;2022-12-20T03:20:26;23.50;;;13.02;;
13832;SDS011;6987;19.472;-99.276;2022-12-20T03:22:55;22.65;;;14.05;;
13832;SDS011;6987;19.472;-99.276;2022-12-20T03:25:24;17.63;;;12.77;;
13832;SDS011;6987;19.472;-99.276;2022-12-20T03:27:53;32.70;;;14.27;;
13832;SDS011;6987;19.472;-99.276;2022-12-20T03:30:22;22.20;;;12.38;;
13832;SDS011;6987;19.472;-99.276;2022-12-20T03:32:52;28.85;;;13.35;;
13832;SDS011;6987;19.472;-99.276;2022-12-20T03:35:21;22.08;;;12.80;;
13832;SDS011;6987;19.472;-99.276;2022-12-20T03:37:50;21.15;;;13.23;;
13832;SDS011;6987;19.472;-99.276;2022-12-20T03:40:20;21.80;;;11.88;;
13832;SDS011;6987;19.472;-99.276;2022-12-20T03:42:48;23.63;;;12.10;;
13832;SDS011;6987;19.472;-99.276;2022-12-20T03:45:17;18.25;;;13.30;;
13832;SDS011;6987;19.472;-99.276;2022-12-20T03:47:46;21.08;;;12.20;;
13832;SDS011;6987;19.472;-99.276;2022-12-20T03:50:17;19.05;;;12.55;;
13832;SDS011;6987;19.472;-99.276;2022-12-20T03:52:46;22.15;;;12.90;;
13832;SDS011;6987;19.472;-99.276;2022-12-20T03:55:14;24.95;;;13.35;;
13832;SDS011;6987;19.472;-99.276;2022-12-20T03:57:43;24.60;;;13.70;;
13832;SDS011;6987;19.472;-99.276;2022-12-20T04:00:13;19.15;;;12.40;;
13832;SDS011;6987;19.472;-99.276;2022-12-20T04:02:41;25.75;;;12.43;;
13832;SDS011;6987;19.472;-99.276;2022-12-20T04:05:10;24.90;;;11.60;;
13832;SDS011;6987;19.472;-99.276;2022-12-20T04:07:41;14.20;;;10.63;;
13832;SDS011;6987;19.472;-99.276;2022-12-20T04:10:10;16.88;;;11.27;;
13832;SDS011;6987;19.472;-99.276;2022-12-20T04:12:39;19.08;;;11.52;;
13832;SDS011;6987;19.472;-99.276;2022-12-20T04:15:08;17.20;;;11.88;;
13832;SDS011;6987;19.472;-99.276;2022-12-20T04:17:37;18.83;;;10.63;;
13832;SDS011;6987;19.472;-99.276;2022-12-20T04:20:06;16.27;;;11.48;;
13832;SDS011;6987;19.472;-99.276;2022-12-20T04:22:47;16.25;;;11.50;;
13832;SDS011;6987;19.472;-99.276;2022-12-20T04:25:17;20.38;;;11.65;;
13832;SDS011;6987;19.472;-99.276;2022-12-20T04:27:46;18.60;;;11.20;;
13832;SDS011;6987;19.472;-99.276;2022-12-20T04:30:15;16.25;;;10.82;;
13832;SDS011;6987;19.472;-99.276;2022-12-20T04:32:44;17.67;;;11.35;;
13832;SDS011;6987;19.472;-99.276;2022-12-20T04:35:13;14.48;;;10.82;;
13832;SDS011;6987;19.472;-99.276;2022-12-20T04:37:42;13.48;;;10.95;;
13832;SDS011;6987;19.472;-99.276;2022-12-20T04:40:12;15.32;;;10.80;;
13832;SDS011;6987;19.472;-99.276;2022-12-20T04:42:41;13.73;;;10.95;;
13832;SDS011;6987;19.472;-99.276;2022-12-20T04:45:10;15.73;;;10.60;;
13832;SDS011;6987;19.472;-99.276;2022-12-20T04:47:39;17.05;;;10.75;;
13832;SDS011;6987;19.472;-99.276;2022-12-20T04:50:08;13.80;;;10.38;;
13832;SDS011;6987;19.472;-99.276;2022-12-20T04:52:37;15.32;;;10.38;;
13832;SDS011;6987;19.472;-99.276;2022-12-20T04:55:24;13.85;;;10.20;;
13832;SDS011;6987;19.472;-99.276;2022-12-20T04:57:53;12.93;;;10.15;;
13832;SDS011;6987;19.472;-99.276;2022-12-20T05:00:22;13.68;;;10.68;;
13832;SDS011;6987;19.472;-99.276;2022-12-20T05:02:50;13.60;;;9.60;;
13832;SDS011;6987;19.472;-99.276;2022-12-20T05:05:19;12.38;;;9.95;;
13832;SDS011;6987;19.472;-99.276;2022-12-20T05:07:48;15.65;;;10.75;;
13832;SDS011;6987;19.472;-99.276;2022-12-20T05:10:17;16.73;;;10.63;;
13832;SDS011;6987;19.472;-99.276;2022-12-20T05:12:48;13.52;;;10.10;;
13832;SDS011;6987;19.472;-99.276;2022-12-20T05:15:17;15.23;;;9.70;;
13832;SDS011;6987;19.472;-99.276;2022-12-20T05:17:45;13.07;;;10.23;;
13832;SDS011;6987;19.472;-99.276;2022-12-20T05:20:14;12.20;;;9.73;;
13832;SDS011;6987;19.472;-99.276;2022-12-20T05:22:43;13.63;;;10.23;;
13832;SDS011;6987;19.472;-99.276;2022-12-20T05:25:29;15.10;;;9.98;;
13832;SDS011;6987;19.472;-99.276;2022-12-20T05:28:30;11.98;;;9.93;;
13832;SDS011;6987;19.472;-99.276;2022-12-20T05:30:59;17.00;;;10.30;;
13832;SDS011;6987;19.472;-99.276;2022-12-20T05:33:28;15.23;;;10.32;;
13832;SDS011;6987;19.472;-99.276;2022-12-20T05:35:57;17.50;;;10.85;;
13832;SDS011;6987;19.472;-99.276;2022-12-20T05:38:26;14.45;;;10.40;;
13832;SDS011;6987;19.472;-99.276;2022-12-20T05:40:55;18.70;;;11.07;;
13832;SDS011;6987;19.472;-99.276;2022-12-20T05:43:23;11.63;;;9.13;;
13832;SDS011;6987;19.472;-99.276;2022-12-20T05:45:54;17.85;;;10.10;;
13832;SDS011;6987;19.472;-99.276;2022-12-20T05:48:23;11.68;;;10.48;;
13832;SDS011;6987;19.472;-99.276;2022-12-20T05:50:52;15.00;;;10.95;;
13832;SDS011;6987;19.472;-99.276;2022-12-20T05:53:20;13.20;;;10.05;;
13832;SDS011;6987;19.472;-99.276;2022-12-20T05:55:50;14.30;;;10.35;;
13832;SDS011;6987;19.472;-99.276;2022-12-20T05:58:19;12.82;;;9.60;;
13832;SDS011;6987;19.472;-99.276;2022-12-20T06:00:48;11.95;;;9.82;;
13832;SDS011;6987;19.472;-99.276;2022-12-20T06:03:18;12.35;;;9.75;;
13832;SDS011;6987;19.472;-99.276;2022-12-20T06:05:47;13.52;;;9.60;;
13832;SDS011;6987;19.472;-99.276;2022-12-20T06:08:16;16.25;;;9.90;;
13832;SDS011;6987;19.472;-99.276;2022-12-20T06:10:46;13.65;;;10.02;;
13832;SDS011;6987;19.472;-99.276;2022-12-20T06:13:15;16.17;;;10.20;;
13832;SDS011;6987;19.472;-99.276;2022-12-20T06:15:45;12.68;;;9.70;;
13832;SDS011;6987;19.472;-99.276;2022-12-20T06:18:14;10.60;;;8.90;;
13832;SDS011;6987;19.472;-99.276;2022-12-20T06:20:48;12.38;;;8.88;;
13832;SDS011;6987;19.472;-99.276;2022-12-20T06:23:17;12.30;;;9.30;;
13832;SDS011;6987;19.472;-99.276;2022-12-20T06:25:46;12.82;;;9.63;;
13832;SDS011;6987;19.472;-99.276;2022-12-20T06:28:14;14.05;;;8.68;;
13832;SDS011;6987;19.472;-99.276;2022-12-20T06:30:51;12.57;;;9.30;;
13832;SDS011;6987;19.472;-99.276;2022-12-20T06:33:20;12.30;;;9.23;;
13832;SDS011;6987;19.472;-99.276;2022-12-20T06:35:50;17.17;;;10.05;;
13832;SDS011;6987;19.472;-99.276;2022-12-20T06:38:19;10.57;;;8.68;;
13832;SDS011;6987;19.472;-99.276;2022-12-20T06:40:48;11.45;;;8.60;;
13832;SDS011;6987;19.472;-99.276;2022-12-20T06:43:17;10.27;;;8.88;;
13832;SDS011;6987;19.472;-99.276;2022-12-20T06:45:46;9.15;;;8.23;;
13832;SDS011;6987;19.472;-99.276;2022-12-20T06:48:15;12.23;;;9.52;;
13832;SDS011;6987;19.472;-99.276;2022-12-20T06:50:47;17.33;;;10.02;;
13832;SDS011;6987;19.472;-99.276;2022-12-20T06:53:17;15.63;;;9.70;;
13832;SDS011;6987;19.472;-99.276;2022-12-20T06:55:46;10.77;;;9.05;;
13832;SDS011;6987;19.472;-99.276;2022-12-20T06:58:15;14.10;;;9.02;;
13832;SDS011;6987;19.472;-99.276;2022-12-20T07:00:44;13.35;;;8.98;;
13832;SDS011;6987;19.472;-99.276;2022-12-20T07:03:13;11.75;;;8.88;;
13832;SDS011;6987;19.472;-99.276;2022-12-20T07:05:42;16.42;;;9.30;;
13832;SDS011;6987;19.472;-99.276;2022-12-20T07:08:10;11.52;;;8.98;;
13832;SDS011;6987;19.472;-99.276;2022-12-20T07:10:41;9.27;;;8.32;;
13832;SDS011;6987;19.472;-99.276;2022-12-20T07:13:10;10.43;;;8.68;;
13832;SDS011;6987;19.472;-99.276;2022-12-20T07:15:38;13.45;;;8.75;;
13832;SDS011;6987;19.472;-99.276;2022-12-20T07:18:07;11.27;;;8.75;;
13832;SDS011;6987;19.472;-99.276;2022-12-20T07:20:36;13.60;;;9.07;;
13832;SDS011;6987;19.472;-99.276;2022-12-20T07:23:05;10.27;;;8.75;;
13832;SDS011;6987;19.472;-99.276;2022-12-20T07:25:34;9.70;;;8.70;;
13832;SDS011;6987;19.472;-99.276;2022-12-20T07:28:04;11.88;;;8.60;;
13832;SDS011;6987;19.472;-99.276;2022-12-20T07:30:33;14.13;;;8.75;;
13832;SDS011;6987;19.472;-99.276;2022-12-20T07:33:02;11.05;;;8.10;;
13832;SDS011;6987;19.472;-99.276;2022-12-20T07:35:31;16.52;;;9.10;;
13832;SDS011;6987;19.472;-99.276;2022-12-20T07:37:59;9.95;;;8.52;;
13832;SDS011;6987;19.472;-99.276;2022-12-20T07:40:28;12.00;;;8.60;;
13832;SDS011;6987;19.472;-99.276;2022-12-20T07:42:57;10.10;;;8.52;;
13832;SDS011;6987;19.472;-99.276;2022-12-20T07:45:28;15.07;;;8.88;;
13832;SDS011;6987;19.472;-99.276;2022-12-20T07:47:57;8.88;;;7.90;;
13832;SDS011;6987;19.472;-99.276;2022-12-20T07:50:25;11.10;;;8.55;;
13832;SDS011;6987;19.472;-99.276;2022-12-20T07:52:55;10.88;;;8.55;;
13832;SDS011;6987;19.472;-99.276;2022-12-20T07:55:24;8.65;;;7.50;;
13832;SDS011;6987;19.472;-99.276;2022-12-20T07:57:55;12.38;;;9.18;;
13832;SDS011;6987;19.472;-99.276;2022-12-20T08:00:24;8.70;;;7.78;;
13832;SDS011;6987;19.472;-99.276;2022-12-20T08:02:56;14.30;;;9.25;;
13832;SDS011;6987;19.472;-99.276;2022-12-20T08:05:27;12.10;;;8.85;;
13832;SDS011;6987;19.472;-99.276;2022-12-20T08:07:56;9.63;;;8.63;;
13832;SDS011;6987;19.472;-99.276;2022-12-20T08:10:26;14.52;;;8.45;;
13832;SDS011;6987;19.472;-99.276;2022-12-20T08:12:55;12.10;;;8.55;;
13832;SDS011;6987;19.472;-99.276;2022-12-20T08:15:25;12.60;;;8.45;;
13832;SDS011;6987;19.472;-99.276;2022-12-20T08:17:57;12.73;;;8.20;;
13832;SDS011;6987;19.472;-99.276;2022-12-20T08:20:25;10.77;;;8.00;;
13832;SDS011;6987;19.472;-99.276;2022-12-20T08:22:54;9.23;;;8.40;;
13832;SDS011;6987;19.472;-99.276;2022-12-20T08:25:23;9.50;;;8.52;;
13832;SDS011;6987;19.472;-99.276;2022-12-20T08:27:52;9.75;;;8.63;;
13832;SDS011;6987;19.472;-99.276;2022-12-20T08:30:21;10.13;;;8.48;;
13832;SDS011;6987;19.472;-99.276;2022-12-20T08:32:50;10.57;;;8.70;;
13832;SDS011;6987;19.472;-99.276;2022-12-20T08:35:20;11.65;;;8.40;;
13832;SDS011;6987;19.472;-99.276;2022-12-20T08:37:50;10.38;;;8.43;;
13832;SDS011;6987;19.472;-99.276;2022-12-20T08:40:18;11.70;;;8.27;;
13832;SDS011;6987;19.472;-99.276;2022-12-20T08:42:47;9.68;;;7.22;;
13832;SDS011;6987;19.472;-99.276;2022-12-20T08:45:16;8.88;;;8.02;;
13832;SDS011;6987;19.472;-99.276;2022-12-20T08:47:45;11.57;;;7.97;;
13832;SDS011;6987;19.472;-99.276;2022-12-20T08:50:14;7.75;;;7.05;;
13832;SDS011;6987;19.472;-99.276;2022-12-20T08:52:45;10.63;;;7.60;;
13832;SDS011;6987;19.472;-99.276;2022-12-20T08:55:14;8.52;;;7.50;;
13832;SDS011;6987;19.472;-99.276;2022-12-20T08:57:43;9.98;;;7.80;;
13832;SDS011;6987;19.472;-99.276;2022-12-20T09:00:12;8.38;;;7.30;;
13832;SDS011;6987;19.472;-99.276;2022-12-20T09:02:44;40.65;;;8.18;;
13832;SDS011;6987;19.472;-99.276;2022-12-20T09:05:13;11.13;;;7.45;;
13832;SDS011;6987;19.472;-99.276;2022-12-20T09:07:42;8.80;;;7.60;;
13832;SDS011;6987;19.472;-99.276;2022-12-20T09:10:13;8.05;;;7.10;;
13832;SDS011;6987;19.472;-99.276;2022-12-20T09:12:41;7.75;;;6.82;;
13832;SDS011;6987;19.472;-99.276;2022-12-20T09:15:10;7.32;;;6.68;;
13832;SDS011;6987;19.472;-99.276;2022-12-20T09:17:39;10.30;;;7.22;;
13832;SDS011;6987;19.472;-99.276;2022-12-20T09:20:08;8.05;;;7.15;;
13832;SDS011;6987;19.472;-99.276;2022-12-20T09:22:37;12.70;;;8.25;;
13832;SDS011;6987;19.472;-99.276;2022-12-20T09:25:06;9.00;;;7.30;;
13832;SDS011;6987;19.472;-99.276;2022-12-20T09:27:37;8.45;;;7.30;;
13832;SDS011;6987;19.472;-99.276;2022-12-20T09:30:06;8.35;;;7.50;;
13832;SDS011;6987;19.472;-99.276;2022-12-20T09:32:35;8.20;;;7.15;;
13832;SDS011;6987;19.472;-99.276;2022-12-20T09:35:04;8.50;;;7.50;;
13832;SDS011;6987;19.472;-99.276;2022-12-20T09:37:33;9.10;;;7.53;;
13832;SDS011;6987;19.472;-99.276;2022-12-20T09:40:02;7.55;;;6.95;;
13832;SDS011;6987;19.472;-99.276;2022-12-20T09:42:31;8.35;;;7.47;;
13832;SDS011;6987;19.472;-99.276;2022-12-20T09:45:02;9.05;;;6.60;;
13832;SDS011;6987;19.472;-99.276;2022-12-20T09:47:33;8.13;;;7.32;;
13832;SDS011;6987;19.472;-99.276;2022-12-20T09:50:02;11.10;;;7.78;;
13832;SDS011;6987;19.472;-99.276;2022-12-20T09:52:35;10.63;;;7.55;;
13832;SDS011;6987;19.472;-99.276;2022-12-20T09:55:11;8.52;;;7.63;;
13832;SDS011;6987;19.472;-99.276;2022-12-20T09:57:46;8.30;;;7.15;;
13832;SDS011;6987;19.472;-99.276;2022-12-20T10:00:20;10.13;;;7.50;;
13832;SDS011;6987;19.472;-99.276;2022-12-20T10:02:49;9.50;;;7.57;;
13832;SDS011;6987;19.472;-99.276;2022-12-20T10:05:19;9.43;;;7.32;;
13832;SDS011;6987;19.472;-99.276;2022-12-20T10:07:52;9.60;;;7.22;;
13832;SDS011;6987;19.472;-99.276;2022-12-20T10:10:29;12.05;;;7.43;;
13832;SDS011;6987;19.472;-99.276;2022-12-20T10:13:03;8.07;;;7.13;;
13832;SDS011;6987;19.472;-99.276;2022-12-20T10:15:36;9.55;;;7.88;;
13832;SDS011;6987;19.472;-99.276;2022-12-20T10:18:11;8.57;;;7.78;;
13832;SDS011;6987;19.472;-99.276;2022-12-20T10:20:45;8.50;;;7.57;;
13832;SDS011;6987;19.472;-99.276;2022-12-20T10:23:20;9.27;;;7.20;;
13832;SDS011;6987;19.472;-99.276;2022-12-20T10:25:50;11.10;;;7.80;;
13832;SDS011;6987;19.472;-99.276;2022-12-20T10:28:22;9.07;;;7.22;;
13832;SDS011;6987;19.472;-99.276;2022-12-20T10:30:55;12.23;;;7.82;;
13832;SDS011;6987;19.472;-99.276;2022-12-20T10:33:25;9.98;;;7.68;;
13832;SDS011;6987;19.472;-99.276;2022-12-20T10:35:56;9.73;;;7.47;;
13832;SDS011;6987;19.472;-99.276;2022-12-20T10:38:45;9.70;;;8.15;;
13832;SDS011;6987;19.472;-99.276;2022-12-20T10:41:15;11.65;;;7.80;;
13832;SDS011;6987;19.472;-99.276;2022-12-20T10:43:45;8.20;;;7.40;;
13832;SDS011;6987;19.472;-99.276;2022-12-20T10:46:16;8.93;;;8.10;;
13832;SDS011;6987;19.472;-99.276;2022-12-20T10:48:46;7.57;;;6.88;;
13832;SDS011;6987;19.472;-99.276;2022-12-20T10:51:16;10.38;;;7.28;;
13832;SDS011;6987;19.472;-99.276;2022-12-20T10:53:52;9.77;;;7.80;;
13832;SDS011;6987;19.472;-99.276;2022-12-20T10:56:22;8.05;;;7.22;;
13832;SDS011;6987;19.472;-99.276;2022-12-20T10:58:53;9.23;;;7.60;;
13832;SDS011;6987;19.472;-99.276;2022-12-20T11:01:25;10.20;;;7.68;;
13832;SDS011;6987;19.472;-99.276;2022-12-20T11:03:59;12.68;;;7.53;;
13832;SDS011;6987;19.472;-99.276;2022-12-20T11:06:38;19.17;;;8.00;;
13832;SDS011;6987;19.472;-99.276;2022-12-20T11:09:21;14.45;;;7.78;;
13832;SDS011;6987;19.472;-99.276;2022-12-20T11:11:56;10.32;;;7.75;;
13832;SDS011;6987;19.472;-99.276;2022-12-20T11:14:25;8.48;;;7.65;;
13832;SDS011;6987;19.472;-99.276;2022-12-20T11:16:56;9.15;;;7.45;;
13832;SDS011;6987;19.472;-99.276;2022-12-20T11:19:30;9.25;;;7.78;;
13832;SDS011;6987;19.472;-99.276;2022-12-20T11:22:06;8.18;;;7.35;;
13832;SDS011;6987;19.472;-99.276;2022-12-20T11:24:43;14.90;;;8.50;;
13832;SDS011;6987;19.472;-99.276;2022-12-20T11:27:15;11.15;;;7.97;;
13832;SDS011;6987;19.472;-99.276;2022-12-20T11:29:59;11.27;;;8.07;;
13832;SDS011;6987;19.472;-99.276;2022-12-20T11:32:35;8.80;;;7.88;;
13832;SDS011;6987;19.472;-99.276;2022-12-20T11:35:09;9.57;;;7.90;;
13832;SDS011;6987;19.472;-99.276;2022-12-20T11:37:41;11.68;;;7.53;;
13832;SDS011;6987;19.472;-99.276;2022-12-20T11:40:20;10.02;;;7.57;;
13832;SDS011;6987;19.472;-99.276;2022-12-20T11:42:58;11.10;;;7.50;;
13832;SDS011;6987;19.472;-99.276;2022-12-20T11:45:30;8.95;;;7.68;;
13832;SDS011;6987;19.472;-99.276;2022-12-20T11:48:06;9.32;;;7.80;;
13832;SDS011;6987;19.472;-99.276;2022-12-20T11:50:50;10.13;;;7.07;;
13832;SDS011;6987;19.472;-99.276;2022-12-20T11:53:22;11.68;;;7.40;;
13832;SDS011;6987;19.472;-99.276;2022-12-20T11:55:54;11.90;;;8.35;;
13832;SDS011;6987;19.472;-99.276;2022-12-20T11:58:28;11.07;;;6.75;;
13832;SDS011;6987;19.472;-99.276;2022-12-20T12:01:00;10.20;;;7.22;;
13832;SDS011;6987;19.472;-99.276;2022-12-20T12:03:33;8.18;;;7.15;;
13832;SDS011;6987;19.472;-99.276;2022-12-20T12:06:04;9.23;;;7.10;;
13832;SDS011;6987;19.472;-99.276;2022-12-20T12:08:38;9.27;;;7.55;;
13832;SDS011;6987;19.472;-99.276;2022-12-20T12:11:11;9.93;;;7.35;;
13832;SDS011;6987;19.472;-99.276;2022-12-20T12:13:40;12.77;;;7.72;;
13832;SDS011;6987;19.472;-99.276;2022-12-20T12:16:10;10.80;;;8.40;;
13832;SDS011;6987;19.472;-99.276;2022-12-20T12:18:41;9.95;;;8.27;;
13832;SDS011;6987;19.472;-99.276;2022-12-20T12:21:12;8.80;;;7.82;;
13832;SDS011;6987;19.472;-99.276;2022-12-20T12:23:46;9.40;;;7.97;;
13832;SDS011;6987;19.472;-99.276;2022-12-20T12:26:19;14.50;;;8.25;;
13832;SDS011;6987;19.472;-99.276;2022-12-20T12:28:51;10.65;;;7.72;;
13832;SDS011;6987;19.472;-99.276;2022-12-20T12:31:22;9.18;;;7.82;;
13832;SDS011;6987;19.472;-99.276;2022-12-20T12:33:57;8.73;;;6.85;;
13832;SDS011;6987;19.472;-99.276;2022-12-20T12:36:33;11.32;;;7.53;;
13832;SDS011;6987;19.472;-99.276;2022-12-20T12:44:38;11.52;;;7.90;;
13832;SDS011;6987;19.472;-99.276;2022-12-20T12:47:10;15.02;;;7.82;;
13832;SDS011;6987;19.472;-99.276;2022-12-20T12:49:43;8.77;;;7.20;;
13832;SDS011;6987;19.472;-99.276;2022-12-20T12:52:33;11.27;;;8.07;;
13832;SDS011;6987;19.472;-99.276;2022-12-20T12:55:04;11.90;;;7.80;;
13832;SDS011;6987;19.472;-99.276;2022-12-20T12:57:56;9.70;;;7.82;;
13832;SDS011;6987;19.472;-99.276;2022-12-20T13:03:33;17.08;;;7.75;;
13832;SDS011;6987;19.472;-99.276;2022-12-20T13:08:49;7.68;;;6.57;;
13832;SDS011;6987;19.472;-99.276;2022-12-20T13:11:27;8.57;;;7.07;;
13832;SDS011;6987;19.472;-99.276;2022-12-20T13:14:10;11.65;;;7.35;;
13832;SDS011;6987;19.472;-99.276;2022-12-20T13:16:39;13.10;;;6.68;;
13832;SDS011;6987;19.472;-99.276;2022-12-20T13:19:11;8.55;;;7.22;;
13832;SDS011;6987;19.472;-99.276;2022-12-20T13:21:41;13.38;;;7.65;;
13832;SDS011;6987;19.472;-99.276;2022-12-20T13:27:26;9.50;;;7.65;;
13832;SDS011;6987;19.472;-99.276;2022-12-20T13:35:29;12.27;;;7.53;;
13832;SDS011;6987;19.472;-99.276;2022-12-20T13:37:58;8.60;;;7.45;;
13832;SDS011;6987;19.472;-99.276;2022-12-20T13:40:31;12.48;;;9.00;;
13832;SDS011;6987;19.472;-99.276;2022-12-20T13:43:05;9.40;;;7.47;;
13832;SDS011;6987;19.472;-99.276;2022-12-20T13:45:34;8.63;;;6.90;;
13832;SDS011;6987;19.472;-99.276;2022-12-20T13:48:06;9.57;;;7.65;;
13832;SDS011;6987;19.472;-99.276;2022-12-20T13:50:38;12.15;;;8.35;;
13832;SDS011;6987;19.472;-99.276;2022-12-20T13:53:15;16.63;;;9.07;;
13832;SDS011;6987;19.472;-99.276;2022-12-20T13:55:44;14.30;;;8.70;;
13832;SDS011;6987;19.472;-99.276;2022-12-20T13:58:16;11.85;;;8.25;;
13832;SDS011;6987;19.472;-99.276;2022-12-20T14:00:46;12.25;;;8.93;;
13832;SDS011;6987;19.472;-99.276;2022-12-20T14:03:18;22.88;;;8.82;;
13832;SDS011;6987;19.472;-99.276;2022-12-20T14:05:48;11.32;;;8.52;;
13832;SDS011;6987;19.472;-99.276;2022-12-20T14:08:20;15.55;;;9.10;;
13832;SDS011;6987;19.472;-99.276;2022-12-20T14:10:51;18.20;;;9.00;;
13832;SDS011;6987;19.472;-99.276;2022-12-20T14:13:22;17.27;;;8.90;;
13832;SDS011;6987;19.472;-99.276;2022-12-20T14:15:51;14.32;;;8.98;;
13832;SDS011;6987;19.472;-99.276;2022-12-20T14:18:21;10.98;;;8.80;;
13832;SDS011;6987;19.472;-99.276;2022-12-20T14:20:50;14.73;;;8.50;;
13832;SDS011;6987;19.472;-99.276;2022-12-20T14:23:21;16.75;;;9.15;;
13832;SDS011;6987;19.472;-99.276;2022-12-20T14:25:50;18.70;;;9.23;;
13832;SDS011;6987;19.472;-99.276;2022-12-20T14:28:27;15.05;;;9.50;;
13832;SDS011;6987;19.472;-99.276;2022-12-20T14:30:57;14.55;;;9.57;;
13832;SDS011;6987;19.472;-99.276;2022-12-20T14:33:29;21.63;;;9.77;;
13832;SDS011;6987;19.472;-99.276;2022-12-20T14:36:06;16.10;;;8.68;;
13832;SDS011;6987;19.472;-99.276;2022-12-20T14:38:35;13.10;;;9.05;;
13832;SDS011;6987;19.472;-99.276;2022-12-20T14:41:23;13.43;;;9.00;;
13832;SDS011;6987;19.472;-99.276;2022-12-20T14:43:57;22.08;;;9.90;;
13832;SDS011;6987;19.472;-99.276;2022-12-20T14:46:26;17.00;;;9.73;;
13832;SDS011;6987;19.472;-99.276;2022-12-20T14:49:12;15.73;;;9.13;;
13832;SDS011;6987;19.472;-99.276;2022-12-20T14:51:44;19.70;;;9.65;;
13832;SDS011;6987;19.472;-99.276;2022-12-20T14:54:15;16.83;;;9.57;;
13832;SDS011;6987;19.472;-99.276;2022-12-20T14:56:46;16.83;;;10.77;;
13832;SDS011;6987;19.472;-99.276;2022-12-20T14:59:21;20.65;;;10.68;;
13832;SDS011;6987;19.472;-99.276;2022-12-20T15:01:51;17.30;;;9.98;;
13832;SDS011;6987;19.472;-99.276;2022-12-20T15:04:21;16.15;;;9.90;;